Time;durP1;ratioP1;P1;durP2;ratioP2;P2;SDS_P1;SDS_P2;PMS_P1;PMS_P2;Temp;Humidity;BMP_temperature;BMP_pressure;BME280_temperature;BME280_humidity;BME280_pressure;Samples;Min_cycle;Max_cycle;Signal;HPM_P1;HPM_P2
2022/03/14 00:00:30;;;;;;;12.52;8.88;;;1.30;99.90;0.90;99256.00;;;;4890978;28;87598;-63
2022/03/14 00:02:58;;;;;;;11.98;8.90;;;1.30;99.90;0.90;99256.00;;;;4885442;28;87764;-63
2022/03/14 00:05:31;;;;;;;12.32;8.48;;;1.20;99.90;0.90;99254.00;;;;4890945;28;87505;-63
2022/03/14 00:07:59;;;;;;;12.13;9.32;;;1.20;99.90;0.90;99253.00;;;;4895731;28;88787;-63
2022/03/14 00:10:28;;;;;;;9.95;7.85;;;1.30;99.90;0.90;99264.00;;;;4875185;28;88497;-63
2022/03/14 00:12:58;;;;;;;9.68;8.35;;;1.30;99.90;0.90;99260.00;;;;4887631;28;87974;-63
2022/03/14 00:15:30;;;;;;;11.02;8.43;;;1.30;99.90;0.90;99267.00;;;;4893141;28;87576;-62
2022/03/14 00:17:57;;;;;;;12.60;9.38;;;1.30;99.90;0.90;99261.00;;;;4888241;28;87495;-64
2022/03/14 00:20:23;;;;;;;9.80;8.35;;;1.30;99.90;0.90;99261.00;;;;4882423;28;88996;-63
2022/03/14 00:22:49;;;;;;;11.85;9.00;;;1.30;99.90;0.90;99263.00;;;;4893468;28;87455;-63
2022/03/14 00:25:15;;;;;;;10.25;8.73;;;1.30;99.90;0.90;99254.00;;;;4890494;28;86978;-64
2022/03/14 00:27:42;;;;;;;10.80;8.13;;;1.30;99.90;0.90;99261.00;;;;4892760;28;87512;-64
2022/03/14 00:30:11;;;;;;;9.93;8.88;;;1.30;99.90;0.90;99257.00;;;;4898578;28;88144;-64
2022/03/14 00:32:39;;;;;;;10.93;8.20;;;1.30;99.90;0.90;99262.00;;;;4890244;28;87915;-64
2022/03/14 00:35:07;;;;;;;10.48;8.82;;;1.30;99.90;0.90;99260.00;;;;4893103;28;87969;-64
2022/03/14 00:37:35;;;;;;;9.57;7.80;;;1.30;99.90;0.90;99260.00;;;;4887472;28;88046;-64
2022/03/14 00:40:03;;;;;;;9.27;7.95;;;1.30;99.90;1.00;99254.00;;;;4892562;28;87317;-64
2022/03/14 00:42:30;;;;;;;10.95;7.78;;;1.30;99.90;1.00;99257.00;;;;4892068;28;87267;-64
2022/03/14 00:45:04;;;;;;;10.00;8.10;;;1.30;99.90;1.00;99265.00;;;;4892286;28;87204;-63
2022/03/14 00:47:31;;;;;;;8.88;7.63;;;1.30;99.90;1.00;99270.00;;;;4892363;28;87536;-63
2022/03/14 00:49:57;;;;;;;12.68;8.57;;;1.40;99.90;1.00;99271.00;;;;4844980;28;1338962;-64
2022/03/14 00:52:23;;;;;;;10.77;7.78;;;1.30;99.90;1.00;99255.00;;;;4892176;28;87046;-64
2022/03/14 00:54:50;;;;;;;10.75;7.57;;;1.30;99.90;1.00;99256.00;;;;4882907;28;87557;-64
2022/03/14 00:57:17;;;;;;;9.55;7.88;;;1.40;99.90;1.00;99253.00;;;;4889338;28;88708;-64
2022/03/14 00:59:43;;;;;;;9.25;7.28;;;1.40;99.90;1.00;99263.00;;;;4890081;28;89370;-63
2022/03/14 01:02:10;;;;;;;8.93;7.40;;;1.40;99.90;1.00;99260.00;;;;4892531;28;86970;-64
2022/03/14 01:04:36;;;;;;;9.85;7.43;;;1.40;99.90;1.00;99256.00;;;;4892143;28;87108;-63
2022/03/14 01:07:03;;;;;;;10.63;8.05;;;1.40;99.90;1.00;99264.00;;;;4882891;28;88188;-64
2022/03/14 01:09:31;;;;;;;9.65;7.40;;;1.40;99.90;1.10;99238.00;;;;4871329;28;87872;-64
2022/03/14 01:11:57;;;;;;;11.20;7.75;;;1.40;99.90;1.10;99240.00;;;;4892559;28;87332;-61
2022/03/14 01:14:25;;;;;;;10.70;7.43;;;1.40;99.90;1.10;99252.00;;;;4893217;28;86462;-62
2022/03/14 01:16:55;;;;;;;9.15;7.82;;;1.40;99.90;1.10;99254.00;;;;4890721;28;88705;-60
2022/03/14 01:19:21;;;;;;;10.77;8.07;;;1.40;99.90;1.10;99253.00;;;;4896301;28;87310;-61
2022/03/14 01:21:49;;;;;;;10.38;8.18;;;1.40;99.90;1.10;99239.00;;;;4890515;28;88634;-61
2022/03/14 01:24:15;;;;;;;9.90;7.65;;;1.40;99.90;1.10;99244.00;;;;4887798;28;87491;-61
2022/03/14 01:26:41;;;;;;;8.85;7.38;;;1.40;99.90;1.10;99242.00;;;;4890935;28;88711;-61
2022/03/14 01:29:08;;;;;;;11.43;8.57;;;1.40;99.90;1.10;99242.00;;;;4892516;28;87509;-61
2022/03/14 01:31:35;;;;;;;12.90;8.27;;;1.40;99.90;1.10;99255.00;;;;4893223;28;87149;-64
2022/03/14 01:34:01;;;;;;;9.57;8.02;;;1.40;99.90;1.10;99239.00;;;;4889523;28;87209;-64
2022/03/14 01:36:27;;;;;;;9.02;7.70;;;1.40;99.90;1.10;99249.00;;;;4893283;28;87841;-63
2022/03/14 01:38:55;;;;;;;12.13;8.07;;;1.40;99.90;1.10;99251.00;;;;4891171;28;88109;-64
2022/03/14 01:41:24;;;;;;;10.23;8.38;;;1.40;99.90;1.10;99230.00;;;;4888724;28;87208;-64
2022/03/14 01:43:52;;;;;;;10.90;8.40;;;1.40;99.90;1.10;99251.00;;;;4897193;28;87476;-64
2022/03/14 01:46:18;;;;;;;9.73;8.45;;;1.40;99.90;1.10;99243.00;;;;4891773;28;90084;-64
2022/03/14 01:48:47;;;;;;;10.07;7.95;;;1.40;99.90;1.10;99251.00;;;;4891993;28;89016;-63
2022/03/14 01:51:16;;;;;;;10.25;8.20;;;1.40;99.90;1.10;99247.00;;;;4881255;28;87603;-64
2022/03/14 01:53:43;;;;;;;10.43;7.88;;;1.40;99.90;1.10;99257.00;;;;4896597;28;87090;-64
2022/03/14 01:56:12;;;;;;;9.57;7.43;;;1.50;99.90;1.10;99265.00;;;;4881423;28;88866;-64
2022/03/14 01:58:40;;;;;;;9.70;7.30;;;1.50;99.90;1.10;99256.00;;;;4889059;28;87410;-60
2022/03/14 02:01:06;;;;;;;9.82;7.88;;;1.50;99.90;1.10;99256.00;;;;4896016;28;86993;-60
2022/03/14 02:03:32;;;;;;;9.70;7.75;;;1.50;99.90;1.10;99247.00;;;;4887932;28;86385;-62
2022/03/14 02:05:59;;;;;;;9.18;7.13;;;1.50;99.90;1.10;99257.00;;;;4893299;28;87642;-62
2022/03/14 02:08:25;;;;;;;10.75;8.02;;;1.50;99.90;1.10;99252.00;;;;4897099;28;87319;-62
2022/03/14 02:10:51;;;;;;;11.10;7.60;;;1.50;99.90;1.10;99257.00;;;;4893164;28;88216;-61
2022/03/14 02:13:22;;;;;;;9.95;7.85;;;1.50;99.90;1.10;99260.00;;;;4878171;28;87226;-60
2022/03/14 02:15:49;;;;;;;10.25;7.55;;;1.40;99.90;1.10;99271.00;;;;4890322;28;89017;-61
2022/03/14 02:18:15;;;;;;;10.20;7.47;;;1.50;99.90;1.10;99253.00;;;;4890488;28;88417;-60
2022/03/14 02:20:41;;;;;;;11.65;8.40;;;1.50;99.90;1.10;99261.00;;;;4880650;28;87333;-61
2022/03/14 02:23:07;;;;;;;11.63;8.30;;;1.50;99.90;1.10;99265.00;;;;4891546;28;87426;-60
2022/03/14 02:25:34;;;;;;;9.85;7.75;;;1.50;99.90;1.10;99261.00;;;;4896077;28;87739;-61
2022/03/14 02:28:01;;;;;;;10.65;7.60;;;1.50;99.90;1.10;99264.00;;;;4852732;28;87442;-61
2022/03/14 02:30:28;;;;;;;9.50;7.30;;;1.50;99.90;1.10;99264.00;;;;4892539;28;87662;-61
2022/03/14 02:32:54;;;;;;;8.82;7.32;;;1.50;99.90;1.20;99280.00;;;;4888027;28;87113;-61
2022/03/14 02:35:20;;;;;;;9.02;7.50;;;1.50;99.90;1.20;99262.00;;;;4888871;28;90998;-61
2022/03/14 02:37:47;;;;;;;10.02;7.78;;;1.50;99.90;1.20;99278.00;;;;4895436;28;88218;-61
2022/03/14 02:40:15;;;;;;;9.75;8.02;;;1.50;99.90;1.20;99275.00;;;;4888738;28;87464;-61
2022/03/14 02:42:41;;;;;;;8.55;7.32;;;1.50;99.90;1.10;99277.00;;;;4891287;28;87109;-61
2022/03/14 02:45:09;;;;;;;10.77;8.13;;;1.50;99.90;1.10;99287.00;;;;4881804;28;89820;-60
2022/03/14 02:47:35;;;;;;;9.43;7.70;;;1.50;99.90;1.10;99292.00;;;;4887346;28;87497;-61
2022/03/14 02:50:03;;;;;;;8.65;7.30;;;1.40;99.90;1.10;99296.00;;;;4895887;28;87536;-60
2022/03/14 02:52:29;;;;;;;10.13;8.07;;;1.40;99.90;1.10;99288.00;;;;4873114;28;86317;-61
2022/03/14 02:54:58;;;;;;;9.95;7.95;;;1.40;99.90;1.10;99284.00;;;;4889439;28;87579;-60
2022/03/14 02:57:24;;;;;;;10.68;7.90;;;1.50;99.90;1.10;99278.00;;;;4889606;28;87478;-61
2022/03/14 02:59:50;;;;;;;9.25;8.30;;;1.40;99.90;1.10;99285.00;;;;4891457;28;88147;-61
2022/03/14 03:02:18;;;;;;;10.77;8.05;;;1.40;99.90;1.10;99281.00;;;;4881137;28;87500;-60
2022/03/14 03:04:44;;;;;;;10.77;8.68;;;1.40;99.90;1.00;99292.00;;;;4890116;28;87367;-60
2022/03/14 03:07:10;;;;;;;10.88;8.65;;;1.40;99.90;1.10;99289.00;;;;4880342;28;89103;-61
2022/03/14 03:09:37;;;;;;;8.90;8.00;;;1.40;99.90;1.10;99288.00;;;;4889786;28;87550;-62
2022/03/14 03:12:05;;;;;;;10.88;9.18;;;1.40;99.90;1.00;99288.00;;;;4889869;28;87353;-60
2022/03/14 03:14:35;;;;;;;11.43;9.38;;;1.30;99.90;1.00;99290.00;;;;4891017;28;87562;-60
2022/03/14 03:17:01;;;;;;;10.30;9.18;;;1.30;99.90;1.00;99282.00;;;;4892395;28;87903;-60
2022/03/14 03:19:27;;;;;;;11.48;9.20;;;1.30;99.90;1.00;99283.00;;;;4891757;28;87542;-61
2022/03/14 03:21:53;;;;;;;11.23;9.02;;;1.30;99.90;1.00;99279.00;;;;4888478;28;87637;-61
2022/03/14 03:24:19;;;;;;;9.70;8.50;;;1.30;99.90;1.00;99282.00;;;;4853631;28;89653;-61
2022/03/14 03:26:45;;;;;;;12.98;9.77;;;1.30;99.90;1.00;99270.00;;;;4889606;28;88241;-61
2022/03/14 03:29:11;;;;;;;10.38;9.35;;;1.30;99.90;0.90;99275.00;;;;4892012;28;87344;-61
2022/03/14 03:31:38;;;;;;;11.25;10.05;;;1.20;99.90;0.90;99282.00;;;;4891686;28;87650;-61
2022/03/14 03:34:06;;;;;;;13.23;10.70;;;1.20;99.90;0.90;99278.00;;;;4886792;28;87671;-61
2022/03/14 03:36:32;;;;;;;11.93;10.05;;;1.20;99.90;0.90;99278.00;;;;4888002;28;88274;-61
2022/03/14 03:38:59;;;;;;;13.25;10.55;;;1.20;99.90;0.90;99276.00;;;;4895473;28;87083;-61
2022/03/14 03:41:26;;;;;;;13.30;11.27;;;1.20;99.90;0.90;99286.00;;;;4887193;28;86729;-61
2022/03/14 03:43:52;;;;;;;12.25;10.98;;;1.20;99.90;0.90;99278.00;;;;4888148;28;87023;-62
2022/03/14 03:46:18;;;;;;;15.27;11.48;;;1.20;99.90;0.90;99281.00;;;;4880801;28;88969;-61
2022/03/14 03:48:44;;;;;;;12.35;10.95;;;1.20;99.90;0.90;99289.00;;;;4888009;28;88449;-62
2022/03/14 03:51:11;;;;;;;12.93;11.57;;;1.20;99.90;0.90;99293.00;;;;4898116;28;87341;-61
2022/03/14 03:53:37;;;;;;;13.35;11.73;;;1.20;99.90;0.90;99293.00;;;;4893183;28;87580;-62
2022/03/14 03:56:03;;;;;;;14.10;12.40;;;1.20;99.90;0.90;99298.00;;;;4882530;28;88640;-62
2022/03/14 03:58:30;;;;;;;17.13;13.50;;;1.30;99.90;0.90;99293.00;;;;4880546;28;87662;-61
2022/03/14 04:00:56;;;;;;;15.88;13.25;;;1.30;99.90;1.00;99288.00;;;;4898554;28;87421;-61
2022/03/14 04:03:22;;;;;;;14.70;13.20;;;1.30;99.90;0.90;99304.00;;;;4896067;28;87924;-62
2022/03/14 04:05:49;;;;;;;16.80;13.68;;;1.30;99.90;1.00;99299.00;;;;4885181;28;87389;-61
2022/03/14 04:08:16;;;;;;;17.45;13.90;;;1.30;99.90;1.00;99300.00;;;;4888668;28;87613;-61
2022/03/14 04:10:43;;;;;;;16.95;14.98;;;1.30;99.90;0.90;99309.00;;;;4897239;28;87438;-60
2022/03/14 04:13:12;;;;;;;17.25;14.85;;;1.30;99.90;1.00;99310.00;;;;4899576;28;89750;-60
2022/03/14 04:15:51;;;;;;;18.90;16.67;;;1.20;99.90;1.00;99298.00;;;;4892672;28;88298;-61
2022/03/14 04:18:20;;;;;;;17.90;14.95;;;1.30;99.90;1.00;99308.00;;;;4894481;28;87121;-61
2022/03/14 04:20:47;;;;;;;22.27;17.35;;;1.30;99.90;1.00;99310.00;;;;4881777;28;87364;-61
2022/03/14 04:23:14;;;;;;;18.02;16.17;;;1.30;99.90;1.00;99304.00;;;;4888063;28;89229;-61
2022/03/14 04:25:41;;;;;;;21.10;17.50;;;1.30;99.90;1.00;99311.00;;;;4886886;28;87262;-61
2022/03/14 04:28:07;;;;;;;19.02;17.08;;;1.30;99.90;1.00;99313.00;;;;4889993;28;87076;-61
2022/03/14 04:30:34;;;;;;;21.35;18.33;;;1.30;99.90;1.00;99318.00;;;;4893050;28;86358;-62
2022/03/14 04:33:00;;;;;;;19.05;17.00;;;1.30;99.90;1.00;99311.00;;;;4889509;28;87820;-61
2022/03/14 04:35:27;;;;;;;19.75;17.67;;;1.30;99.90;1.00;99317.00;;;;4890564;28;87700;-61
2022/03/14 04:37:53;;;;;;;23.60;19.33;;;1.30;99.90;1.00;99316.00;;;;4891472;28;88331;-63
2022/03/14 04:40:19;;;;;;;22.65;19.42;;;1.40;99.90;1.10;99319.00;;;;4892423;28;87258;-61
2022/03/14 04:42:45;;;;;;;21.55;19.35;;;1.30;99.90;1.00;99322.00;;;;4881673;28;87613;-61
2022/03/14 04:45:12;;;;;;;22.98;20.48;;;1.40;99.90;1.00;99315.00;;;;4892056;28;87356;-61
2022/03/14 04:47:38;;;;;;;22.25;19.50;;;1.40;99.90;1.00;99326.00;;;;4889935;28;87454;-61
2022/03/14 04:50:06;;;;;;;21.73;19.20;;;1.30;99.90;1.10;99312.00;;;;4890382;28;87302;-61
2022/03/14 04:52:34;;;;;;;22.88;20.63;;;1.30;99.90;1.10;99316.00;;;;4889539;28;88569;-61
2022/03/14 04:55:00;;;;;;;22.90;20.30;;;1.30;99.90;1.10;99316.00;;;;4893990;28;86572;-61
2022/03/14 04:57:26;;;;;;;29.88;22.45;;;1.30;99.90;1.10;99313.00;;;;4893633;28;87385;-63
2022/03/14 04:59:52;;;;;;;24.17;21.58;;;1.40;99.90;1.10;99315.00;;;;4882780;28;87458;-62
2022/03/14 05:02:23;;;;;;;22.92;20.58;;;1.40;99.90;1.10;99314.00;;;;4887623;28;88892;-62
2022/03/14 05:04:52;;;;;;;25.67;22.93;;;1.40;99.90;1.10;99318.00;;;;4891434;28;88862;-61
2022/03/14 05:07:19;;;;;;;24.38;21.55;;;1.40;99.90;1.20;99316.00;;;;4888557;28;86917;-61
2022/03/14 05:09:45;;;;;;;24.23;21.67;;;1.40;99.90;1.20;99317.00;;;;4892523;28;87339;-61
2022/03/14 05:12:14;;;;;;;24.83;22.33;;;1.40;99.90;1.20;99332.00;;;;4884852;28;87744;-62
2022/03/14 05:14:40;;;;;;;26.58;22.95;;;1.50;99.90;1.20;99329.00;;;;4884108;28;87564;-61
2022/03/14 05:17:09;;;;;;;25.77;23.02;;;1.50;99.90;1.20;99325.00;;;;4892294;28;87333;-61
2022/03/14 05:19:35;;;;;;;27.50;23.98;;;1.50;99.90;1.20;99332.00;;;;4893297;28;86545;-61
2022/03/14 05:22:02;;;;;;;26.08;23.38;;;1.50;99.90;1.30;99328.00;;;;4899336;28;87512;-61
2022/03/14 05:24:29;;;;;;;24.95;22.10;;;1.50;99.90;1.30;99335.00;;;;4893260;28;89060;-61
2022/03/14 05:26:55;;;;;;;24.20;21.55;;;1.60;99.90;1.30;99325.00;;;;4887694;28;88106;-61
2022/03/14 05:29:22;;;;;;;26.48;23.63;;;1.60;99.90;1.40;99331.00;;;;4892391;28;87072;-62
2022/03/14 05:31:48;;;;;;;25.40;22.20;;;1.60;99.90;1.40;99332.00;;;;4881142;28;88624;-61
2022/03/14 05:34:15;;;;;;;24.92;22.27;;;1.70;99.90;1.40;99334.00;;;;4886319;28;87916;-61
2022/03/14 05:36:41;;;;;;;24.15;21.45;;;1.70;99.90;1.50;99337.00;;;;4880669;28;87098;-61
2022/03/14 05:39:08;;;;;;;23.17;20.38;;;1.70;99.90;1.40;99345.00;;;;4888420;28;87657;-62
2022/03/14 05:41:34;;;;;;;24.63;20.13;;;1.70;99.90;1.40;99332.00;;;;4887182;28;87510;-61
2022/03/14 05:44:00;;;;;;;23.42;20.92;;;1.70;99.90;1.40;99335.00;;;;4892467;28;87159;-62
2022/03/14 05:46:26;;;;;;;23.50;20.73;;;1.70;99.90;1.50;99342.00;;;;4888682;28;86978;-62
2022/03/14 05:48:52;;;;;;;23.90;20.58;;;1.70;99.90;1.50;99345.00;;;;4892570;28;87599;-62
2022/03/14 05:51:19;;;;;;;22.70;20.23;;;1.70;99.90;1.40;99348.00;;;;4894883;28;89213;-62
2022/03/14 05:53:45;;;;;;;26.75;21.80;;;1.70;99.90;1.40;99346.00;;;;4890295;28;88378;-64
2022/03/14 05:56:11;;;;;;;24.08;21.48;;;1.70;99.90;1.50;99339.00;;;;4890152;28;87550;-64
2022/03/14 05:58:37;;;;;;;26.58;22.23;;;1.80;99.90;1.40;99342.00;;;;4855197;28;87522;-63
2022/03/14 06:01:03;;;;;;;25.15;20.70;;;1.70;99.90;1.40;99353.00;;;;4892734;28;87666;-62
2022/03/14 06:03:30;;;;;;;22.55;19.98;;;1.70;99.90;1.40;99351.00;;;;4890967;28;89071;-62
2022/03/14 06:05:56;;;;;;;21.90;19.17;;;1.70;99.90;1.40;99352.00;;;;4891182;28;87272;-63
2022/03/14 06:08:22;;;;;;;20.33;18.23;;;1.60;99.90;1.40;99342.00;;;;4891102;28;86276;-61
2022/03/14 06:10:48;;;;;;;19.80;17.73;;;1.70;99.90;1.30;99352.00;;;;4889136;28;87645;-62
2022/03/14 06:13:15;;;;;;;21.85;18.02;;;1.60;99.90;1.30;99342.00;;;;4890278;28;87355;-63
2022/03/14 06:15:42;;;;;;;20.13;18.02;;;1.60;99.90;1.30;99346.00;;;;4894647;28;87983;-63
2022/03/14 06:18:08;;;;;;;20.20;17.30;;;1.60;99.90;1.30;99354.00;;;;4892190;28;86999;-62
2022/03/14 06:20:35;;;;;;;21.95;17.30;;;1.60;99.90;1.40;99348.00;;;;4886083;28;87629;-60
2022/03/14 06:23:01;;;;;;;21.92;17.70;;;1.60;99.90;1.40;99341.00;;;;4882825;28;87321;-64
2022/03/14 06:25:28;;;;;;;18.92;16.30;;;1.70;99.90;1.40;99347.00;;;;4894004;28;88016;-63
2022/03/14 06:27:56;;;;;;;18.80;16.67;;;1.70;99.90;1.50;99354.00;;;;4889845;28;87160;-61
2022/03/14 06:30:24;;;;;;;18.90;14.10;;;1.70;99.90;1.60;99348.00;;;;4887480;28;87659;-64
2022/03/14 06:32:51;;;;;;;15.60;12.57;;;1.90;99.90;1.70;99347.00;;;;4881714;28;87338;-62
2022/03/14 06:35:20;;;;;;;15.00;10.90;;;2.00;99.90;1.70;99347.00;;;;4892407;28;87270;-62
2022/03/14 06:37:47;;;;;;;15.93;11.65;;;2.00;99.90;1.90;99343.00;;;;4886798;28;87079;-61
2022/03/14 06:40:13;;;;;;;15.95;10.63;;;2.10;99.90;2.00;99343.00;;;;4888850;28;90074;-62
2022/03/14 06:42:41;;;;;;;13.60;9.13;;;2.30;99.90;2.10;99356.00;;;;4891337;28;88081;-62
2022/03/14 06:45:11;;;;;;;12.13;9.68;;;2.30;99.90;2.30;99354.00;;;;4891263;28;87195;-63
2022/03/14 06:47:38;;;;;;;12.15;8.70;;;2.60;99.90;2.30;99355.00;;;;4877829;28;87188;-62
2022/03/14 06:50:06;;;;;;;11.50;7.93;;;2.50;99.90;2.20;99365.00;;;;4888196;28;87942;-62
2022/03/14 06:52:33;;;;;;;11.05;7.22;;;2.50;99.90;2.30;99359.00;;;;4882350;28;87598;-62
2022/03/14 06:54:59;;;;;;;11.52;7.25;;;2.60;99.90;2.30;99364.00;;;;4889889;28;87477;-62
2022/03/14 06:57:26;;;;;;;12.50;6.57;;;2.50;99.90;2.30;99370.00;;;;4880146;28;86334;-62
2022/03/14 06:59:52;;;;;;;10.07;7.32;;;2.50;99.20;2.40;99370.00;;;;4881066;28;88675;-61
2022/03/14 07:02:19;;;;;;;9.32;6.10;;;2.60;99.10;2.30;99377.00;;;;4891229;28;88060;-63
2022/03/14 07:04:45;;;;;;;10.10;6.05;;;2.60;98.60;2.20;99369.00;;;;4888788;28;88840;-62
2022/03/14 07:07:11;;;;;;;7.45;5.00;;;2.50;98.00;2.10;99372.00;;;;4891131;28;87227;-62
2022/03/14 07:09:37;;;;;;;8.70;5.15;;;2.40;97.00;2.10;99381.00;;;;4890869;28;87654;-62
2022/03/14 07:12:04;;;;;;;6.45;3.40;;;2.40;96.60;2.10;99371.00;;;;4889256;28;89077;-61
2022/03/14 07:14:30;;;;;;;6.85;4.20;;;2.40;95.70;2.10;99371.00;;;;4877026;28;87447;-62
2022/03/14 07:16:57;;;;;;;8.60;4.05;;;2.50;95.80;2.20;99365.00;;;;4894379;28;87158;-61
2022/03/14 07:19:23;;;;;;;8.00;3.70;;;2.50;95.80;2.20;99370.00;;;;4893171;28;87692;-61
2022/03/14 07:21:49;;;;;;;6.03;3.80;;;2.50;95.10;2.30;99362.00;;;;4890048;28;87208;-62
2022/03/14 07:24:15;;;;;;;6.50;3.42;;;2.60;95.10;2.40;99367.00;;;;4894646;28;87076;-62
2022/03/14 07:26:41;;;;;;;6.00;3.40;;;2.70;94.60;2.40;99365.00;;;;4893806;28;87052;-62
2022/03/14 07:29:10;;;;;;;8.68;3.58;;;2.70;94.40;2.60;99363.00;;;;4894378;28;90079;-62
2022/03/14 07:31:37;;;;;;;5.68;3.40;;;2.90;94.60;2.70;99369.00;;;;4884022;28;88346;-61
2022/03/14 07:34:04;;;;;;;6.85;3.30;;;2.90;93.70;2.70;99357.00;;;;4889277;28;87448;-61
2022/03/14 07:36:34;;;;;;;6.72;3.80;;;2.90;93.50;2.80;99365.00;;;;4895774;28;87542;-62
2022/03/14 07:39:04;;;;;;;6.30;3.42;;;3.00;93.20;2.80;99358.00;;;;4894166;28;88952;-61
2022/03/14 07:41:30;;;;;;;6.85;3.58;;;3.00;93.00;2.70;99356.00;;;;4890819;28;88437;-60
2022/03/14 07:44:00;;;;;;;5.85;3.50;;;2.90;93.20;2.70;99365.00;;;;4893057;28;87169;-60
2022/03/14 07:46:28;;;;;;;6.40;3.22;;;2.90;93.40;2.80;99352.00;;;;4891936;28;86285;-60
2022/03/14 07:48:55;;;;;;;6.22;3.95;;;2.90;93.20;2.80;99348.00;;;;4892073;28;87284;-61
2022/03/14 07:51:22;;;;;;;8.77;4.10;;;2.90;93.50;2.90;99357.00;;;;4891686;28;88737;-61
2022/03/14 07:53:48;;;;;;;8.13;3.65;;;3.10;93.50;3.00;99373.00;;;;4892384;28;88241;-61
2022/03/14 07:56:21;;;;;;;9.20;3.90;;;3.20;93.40;2.90;99364.00;;;;4893949;28;87450;-61
2022/03/14 07:58:47;;;;;;;7.10;3.67;;;3.10;92.40;3.00;99367.00;;;;4892731;28;88108;-61
2022/03/14 08:01:13;;;;;;;8.00;3.78;;;3.10;92.70;3.00;99363.00;;;;4889393;28;87581;-61
2022/03/14 08:03:40;;;;;;;6.53;3.58;;;3.10;92.10;2.90;99369.00;;;;4892079;28;87390;-61
2022/03/14 08:06:07;;;;;;;6.75;3.25;;;3.10;92.30;2.90;99363.00;;;;4893682;28;87668;-61
2022/03/14 08:08:34;;;;;;;6.35;3.80;;;3.00;92.00;3.00;99365.00;;;;4893139;28;87667;-61
2022/03/14 08:11:04;;;;;;;6.35;3.33;;;3.10;92.20;3.00;99370.00;;;;4875139;28;88782;-61
2022/03/14 08:13:31;;;;;;;5.47;3.33;;;3.20;91.60;3.00;99363.00;;;;4888632;28;87012;-61
2022/03/14 08:15:58;;;;;;;8.35;3.25;;;3.20;91.40;3.10;99361.00;;;;4891266;28;87517;-61
2022/03/14 08:18:24;;;;;;;7.72;3.67;;;3.30;91.60;3.20;99366.00;;;;4895544;28;88747;-60
2022/03/14 08:20:56;;;;;;;7.40;3.65;;;3.30;91.00;3.30;99362.00;;;;4893896;28;88169;-60
2022/03/14 08:23:22;;;;;;;5.72;3.58;;;3.50;91.20;3.40;99368.00;;;;4892830;28;86984;-61
2022/03/14 08:25:49;;;;;;;10.05;3.97;;;3.50;91.20;3.40;99378.00;;;;4884735;28;87385;-61
2022/03/14 08:28:15;;;;;;;10.93;4.38;;;3.40;91.90;3.50;99375.00;;;;4890550;28;88691;-61
2022/03/14 08:30:42;;;;;;;6.55;4.25;;;3.50;92.40;3.50;99367.00;;;;4890771;28;87457;-60
2022/03/14 08:33:08;;;;;;;7.53;4.05;;;3.60;92.50;3.50;99359.00;;;;4893145;28;87087;-61
2022/03/14 08:35:34;;;;;;;8.57;4.05;;;3.60;92.20;3.70;99358.00;;;;4868072;28;86782;-61
2022/03/14 08:38:01;;;;;;;5.88;3.90;;;3.80;91.80;3.80;99368.00;;;;4890502;28;88206;-62
2022/03/14 08:40:28;;;;;;;8.43;4.00;;;3.80;91.30;3.90;99366.00;;;;4881279;28;88059;-61
2022/03/14 08:42:56;;;;;;;6.38;3.70;;;3.90;91.00;4.00;99363.00;;;;4893851;28;88413;-61
2022/03/14 08:45:24;;;;;;;7.80;4.40;;;4.10;91.10;4.00;99348.00;;;;4892186;28;87446;-61
2022/03/14 08:47:52;;;;;;;8.90;4.20;;;4.10;91.10;3.90;99357.00;;;;4879276;28;87317;-61
2022/03/14 08:50:18;;;;;;;7.57;4.25;;;4.00;91.60;3.90;99350.00;;;;4891324;28;87280;-61
2022/03/14 08:52:45;;;;;;;10.73;4.60;;;3.90;91.90;4.00;99356.00;;;;4893247;28;87317;-61
2022/03/14 08:55:13;;;;;;;5.90;4.32;;;3.90;91.80;4.10;99343.00;;;;4892090;28;87106;-60
2022/03/14 08:57:41;;;;;;;8.27;4.43;;;4.10;91.60;4.10;99342.00;;;;4890574;28;87384;-60
2022/03/14 09:00:08;;;;;;;8.07;3.75;;;4.10;91.60;4.20;99352.00;;;;4891412;28;87220;-60
2022/03/14 09:02:36;;;;;;;9.25;3.63;;;4.10;91.10;4.10;99349.00;;;;4893243;28;87333;-61
2022/03/14 09:05:03;;;;;;;9.10;4.20;;;4.20;91.30;4.10;99354.00;;;;4883785;28;87329;-61
2022/03/14 09:07:31;;;;;;;7.35;3.75;;;4.20;91.40;3.70;99342.00;;;;4894035;28;89586;-60
2022/03/14 09:10:04;;;;;;;7.90;3.47;;;3.80;91.10;3.40;99349.00;;;;4892778;28;87580;-61
2022/03/14 09:12:32;;;;;;;7.45;3.60;;;3.50;91.80;3.50;99343.00;;;;4895181;28;87019;-61
2022/03/14 09:14:59;;;;;;;7.00;3.85;;;3.60;91.90;3.60;99349.00;;;;4876362;28;87480;-61
2022/03/14 09:17:28;;;;;;;7.82;3.30;;;3.60;91.60;3.60;99374.00;;;;4891745;28;88048;-61
2022/03/14 09:19:54;;;;;;;6.15;3.38;;;3.70;90.90;3.40;99379.00;;;;4883809;28;87713;-61
2022/03/14 09:22:22;;;;;;;5.38;2.80;;;3.60;90.50;3.50;99365.00;;;;4891872;28;87266;-63
2022/03/14 09:24:48;;;;;;;7.15;2.95;;;3.60;90.20;3.50;99353.00;;;;4889867;28;87020;-61
2022/03/14 09:27:14;;;;;;;5.88;2.95;;;3.60;90.20;3.50;99378.00;;;;4871258;28;90238;-62
2022/03/14 09:29:40;;;;;;;5.40;3.00;;;3.50;90.70;3.20;99373.00;;;;4889749;28;87249;-62
2022/03/14 09:32:08;;;;;;;4.57;2.95;;;3.40;90.40;3.10;99349.00;;;;4890954;28;88580;-60
2022/03/14 09:34:36;;;;;;;5.75;3.53;;;3.20;90.40;3.00;99374.00;;;;4881547;28;87444;-61
2022/03/14 09:37:03;;;;;;;5.25;2.83;;;3.10;90.60;3.00;99380.00;;;;4888469;28;87348;-61
2022/03/14 09:39:29;;;;;;;3.25;2.53;;;3.10;90.50;2.90;99363.00;;;;4882217;28;87846;-61
2022/03/14 09:41:57;;;;;;;6.10;3.00;;;3.00;90.60;2.80;99380.00;;;;4881261;28;87031;-60
2022/03/14 09:44:29;;;;;;;2.88;2.13;;;3.00;90.90;2.70;99373.00;;;;4887373;28;87791;-61
2022/03/14 09:47:01;;;;;;;3.25;2.20;;;2.90;90.40;2.80;99367.00;;;;4890362;28;88799;-61
2022/03/14 09:49:27;;;;;;;;;;;3.00;90.60;2.90;99374.00;;;;4841027;28;89717;-61
2022/03/14 09:51:54;;;;;;;4.68;2.17;;;3.00;90.30;2.90;99359.00;;;;4868691;28;88356;-61
2022/03/14 09:54:21;;;;;;;3.35;2.28;;;3.00;90.70;2.80;99372.00;;;;4879438;28;87525;-61
2022/03/14 09:56:48;;;;;;;5.63;2.40;;;3.00;90.20;2.80;99356.00;;;;4888079;28;89640;-62
2022/03/14 09:59:14;;;;;;;3.70;2.15;;;3.00;90.40;2.80;99375.00;;;;4891296;28;88185;-60
2022/03/14 10:01:42;;;;;;;5.47;2.25;;;3.00;90.30;3.00;99339.00;;;;4885876;28;87361;-60
2022/03/14 10:04:09;;;;;;;4.40;2.22;;;3.10;90.30;3.20;99339.00;;;;4881726;28;87589;-60
2022/03/14 10:06:40;;;;;;;9.07;2.80;;;3.40;90.60;3.30;99345.00;;;;4895227;28;88697;-60
2022/03/14 10:09:06;;;;;;;4.50;2.40;;;3.50;90.30;3.30;99357.00;;;;4888010;28;87773;-60
2022/03/14 10:11:32;;;;;;;4.50;2.30;;;3.40;89.70;3.20;99354.00;;;;4883057;28;87308;-60
2022/03/14 10:13:59;;;;;;;4.43;2.28;;;3.30;88.80;3.20;99354.00;;;;4881238;28;86912;-61
2022/03/14 10:16:26;;;;;;;4.63;2.45;;;3.40;89.20;3.20;99347.00;;;;4898436;28;87685;-61
2022/03/14 10:18:58;;;;;;;4.38;2.22;;;3.40;89.50;3.20;99338.00;;;;4893340;28;90112;-61
2022/03/14 10:21:41;;;;;;;3.95;2.42;;;3.30;89.70;3.40;99339.00;;;;4875597;28;88011;-61
2022/03/14 10:24:11;;;;;;;6.90;2.30;;;3.50;89.70;3.50;99333.00;;;;4887685;28;87525;-62
2022/03/14 10:26:42;;;;;;;7.63;3.10;;;3.70;90.20;3.50;99355.00;;;;4879609;28;89012;-62
2022/03/14 10:29:14;;;;;;;5.23;2.40;;;3.60;89.90;3.50;99345.00;;;;4875930;28;88388;-62
2022/03/14 10:31:45;;;;;;;5.72;2.47;;;3.70;90.10;3.40;99367.00;;;;4891608;28;87193;-62
2022/03/14 10:34:16;;;;;;;5.70;2.80;;;3.50;89.30;3.30;99346.00;;;;4888117;28;87387;-61
2022/03/14 10:36:53;;;;;;;7.70;2.90;;;3.50;89.30;3.30;99347.00;;;;4893100;28;89829;-62
2022/03/14 10:39:30;;;;;;;4.05;2.53;;;3.50;89.70;3.20;99356.00;;;;4884007;28;87200;-62
2022/03/14 10:42:10;;;;;;;6.35;3.00;;;3.40;90.00;3.10;99356.00;;;;4893250;28;87408;-62
2022/03/14 10:44:39;;;;;;;5.57;2.90;;;3.30;90.00;3.20;99331.00;;;;4885367;28;87083;-62
2022/03/14 10:47:09;;;;;;;3.35;2.60;;;3.30;90.00;3.00;99339.00;;;;4880130;28;90450;-61
2022/03/14 10:49:39;;;;;;;5.50;2.88;;;3.30;90.10;3.00;99348.00;;;;4892678;28;89321;-61
2022/03/14 10:52:11;;;;;;;4.15;2.33;;;3.20;90.40;2.90;99340.00;;;;4880640;28;87067;-61
2022/03/14 10:54:42;;;;;;;6.07;2.85;;;3.20;90.40;2.80;99338.00;;;;4878690;28;87329;-61
2022/03/14 10:57:28;;;;;;;7.65;2.85;;;3.10;90.30;2.80;99332.00;;;;4876697;28;87584;-62
2022/03/14 10:59:56;;;;;;;5.63;2.92;;;3.10;90.20;3.00;99327.00;;;;4893378;28;87786;-62
2022/03/14 11:02:24;;;;;;;5.78;2.40;;;3.30;90.30;3.00;99324.00;;;;4896519;28;87455;-62
2022/03/14 11:04:55;;;;;;;6.72;2.88;;;3.30;90.20;3.00;99326.00;;;;4895598;28;86717;-61